createdAt,value
2018-08-06T00:02:23.168Z,67.80
2018-08-06T00:04:51.675Z,67.90
2018-08-06T00:07:20.165Z,67.90
2018-08-06T00:09:48.659Z,67.90
2018-08-06T00:12:17.158Z,67.60
2018-08-06T00:14:45.674Z,67.70
2018-08-06T00:17:14.190Z,67.60
2018-08-06T00:19:42.754Z,67.90
2018-08-06T00:22:11.256Z,68.00
2018-08-06T00:24:39.765Z,67.90
2018-08-06T00:27:08.279Z,68.00
2018-08-06T00:29:36.844Z,67.90
2018-08-06T00:32:05.639Z,67.70
2018-08-06T00:34:34.139Z,67.70
2018-08-06T00:37:02.639Z,67.90
2018-08-06T00:39:31.131Z,68.10
2018-08-06T00:41:59.629Z,68.10
2018-08-06T00:44:28.123Z,67.80
2018-08-06T00:46:56.625Z,67.80
2018-08-06T00:49:25.128Z,68.20
2018-08-06T00:51:53.626Z,67.90
2018-08-06T00:54:22.128Z,67.80
2018-08-06T00:56:50.635Z,67.50
2018-08-06T01:04:15.488Z,68.40
2018-08-06T01:06:43.990Z,67.50
2018-08-06T01:09:12.554Z,67.40
2018-08-06T01:11:41.055Z,67.40
2018-08-06T01:14:09.547Z,67.50
2018-08-06T01:16:38.063Z,67.50
2018-08-06T01:19:06.591Z,67.60
2018-08-06T01:21:35.111Z,67.50
2018-08-06T01:24:03.613Z,67.80
2018-08-06T01:26:32.136Z,67.90
2018-08-06T01:29:00.631Z,67.00
2018-08-06T01:31:29.193Z,67.10
2018-08-06T01:33:58.167Z,67.70
2018-08-06T01:36:26.655Z,66.90
2018-08-06T01:38:55.155Z,67.00
2018-08-06T01:41:23.656Z,67.00
2018-08-06T01:43:52.163Z,67.20
2018-08-06T01:46:20.673Z,67.40
2018-08-06T01:48:49.489Z,67.70
2018-08-06T01:51:18.012Z,67.40
2018-08-06T01:53:46.543Z,67.00
2018-08-06T01:56:15.059Z,67.00
2018-08-06T01:58:43.564Z,66.70
2018-08-06T02:01:12.067Z,66.80
2018-08-06T02:03:40.567Z,67.20
2018-08-06T02:06:09.071Z,67.00
2018-08-06T02:08:37.568Z,66.60
2018-08-06T02:11:06.067Z,66.60
2018-08-06T02:13:34.570Z,66.50
2018-08-06T02:16:03.423Z,66.60
2018-08-06T02:18:32.271Z,67.20
2018-08-06T02:21:00.779Z,67.30
2018-08-06T02:23:29.294Z,67.10
2018-08-06T02:25:57.805Z,67.10
2018-08-06T02:28:26.294Z,67.40
2018-08-06T02:30:54.844Z,67.50
2018-08-06T02:35:51.545Z,67.70
2018-08-06T02:38:20.057Z,67.70
2018-08-06T02:40:48.568Z,67.50
2018-08-06T02:43:17.075Z,67.50
2018-08-06T02:45:45.580Z,67.30
2018-08-06T02:48:14.081Z,67.50
2018-08-06T02:50:42.587Z,67.40
2018-08-06T02:53:11.227Z,67.40
2018-08-06T02:55:39.735Z,67.40
2018-08-06T02:58:08.226Z,67.60
2018-08-06T03:03:04.911Z,67.50
2018-08-06T03:05:33.412Z,67.40
2018-08-06T03:08:02.231Z,67.50
2018-08-06T03:10:31.036Z,67.40
2018-08-06T03:12:59.840Z,67.40
2018-08-06T03:15:28.355Z,67.40
2018-08-06T03:17:56.867Z,67.40
2018-08-06T03:20:25.384Z,67.40
2018-08-06T03:22:53.895Z,67.20
2018-08-06T03:25:22.407Z,67.30
2018-08-06T03:27:50.920Z,67.40
2018-08-06T03:32:48.896Z,67.20
2018-08-06T03:35:17.592Z,67.00
2018-08-06T03:40:14.361Z,66.60
2018-08-06T03:42:42.859Z,66.90
2018-08-06T03:45:12.335Z,67.20
2018-08-06T03:50:11.556Z,66.70
2018-08-06T03:55:09.842Z,66.90
2018-08-06T03:57:38.851Z,67.20
2018-08-06T04:00:09.543Z,67.30
2018-08-06T04:02:38.062Z,67.40
2018-08-06T04:05:08.387Z,67.40
2018-08-06T04:07:36.888Z,67.40
2018-08-06T04:10:06.127Z,67.20
2018-08-06T04:12:34.638Z,67.10
2018-08-06T04:17:31.555Z,67.30
2018-08-06T04:20:00.080Z,67.50
2018-08-06T04:24:56.767Z,67.70
2018-08-06T04:27:25.274Z,67.50
2018-08-06T04:29:53.775Z,67.60
2018-08-06T04:32:22.271Z,67.70
2018-08-06T04:34:50.786Z,67.80
2018-08-06T04:37:19.296Z,68.60
2018-08-06T04:39:48.331Z,67.50
2018-08-06T04:42:17.231Z,67.40
2018-08-06T04:44:45.734Z,67.70
2018-08-06T04:47:14.235Z,67.60
2018-08-06T04:49:42.735Z,67.80
2018-08-06T04:52:11.249Z,68.00
2018-08-06T04:54:39.760Z,68.30
2018-08-06T04:57:08.259Z,68.40
2018-08-06T04:59:36.810Z,67.80
2018-08-06T05:02:05.310Z,67.60
2018-08-06T05:04:33.807Z,67.60
2018-08-06T05:07:02.341Z,67.50
2018-08-06T05:09:43.919Z,67.60
2018-08-06T05:14:41.595Z,67.70
2018-08-06T05:19:39.008Z,67.80
2018-08-06T05:22:07.625Z,67.60
2018-08-06T05:24:36.348Z,67.70
2018-08-06T05:29:33.396Z,67.60
2018-08-06T05:32:01.910Z,67.80
2018-08-06T05:34:30.415Z,68.10
2018-08-06T05:36:58.923Z,67.80
2018-08-06T05:39:27.432Z,67.90
2018-08-06T05:41:55.930Z,68.10
2018-08-06T05:44:24.447Z,68.10
2018-08-06T05:46:52.943Z,68.30
2018-08-06T05:49:21.467Z,68.20
2018-08-06T05:51:49.977Z,68.00
2018-08-06T05:54:18.478Z,67.70
2018-08-06T05:56:46.995Z,66.60
2018-08-06T05:59:15.508Z,66.30
2018-08-06T06:01:44.070Z,66.50
2018-08-06T06:04:12.659Z,66.60
2018-08-06T06:06:41.223Z,67.80
2018-08-06T06:11:39.215Z,67.50
2018-08-06T06:14:08.655Z,67.60
2018-08-06T06:16:37.163Z,67.70
2018-08-06T06:19:06.504Z,67.50
2018-08-06T06:21:35.063Z,67.40
2018-08-06T06:24:03.577Z,67.10
2018-08-06T06:26:32.091Z,67.40
2018-08-06T06:29:00.607Z,67.80
2018-08-06T06:31:29.164Z,67.70
2018-08-06T06:33:57.720Z,67.70
2018-08-06T06:36:26.390Z,67.40
2018-08-06T06:38:54.907Z,67.40
2018-08-06T06:41:23.407Z,67.70
2018-08-06T06:43:51.987Z,67.80
2018-08-06T06:46:20.491Z,67.40
2018-08-06T06:48:49.032Z,67.90
2018-08-06T06:51:17.527Z,67.10
2018-08-06T06:53:46.354Z,66.30
2018-08-06T06:56:15.280Z,66.10
2018-08-06T06:58:43.783Z,65.10
2018-08-06T07:01:12.311Z,64.20
2018-08-06T07:03:40.819Z,64.50
2018-08-06T07:06:09.359Z,64.30
2018-08-06T07:11:06.440Z,63.90
2018-08-06T07:16:03.160Z,63.30
2018-08-06T07:18:31.687Z,62.90
2018-08-06T07:21:00.215Z,62.60
2018-08-06T07:23:28.710Z,60.60
2018-08-06T07:28:25.408Z,59.30
2018-08-06T07:30:53.923Z,58.60
2018-08-06T07:33:22.432Z,58.20
2018-08-06T07:35:50.939Z,58.50
2018-08-06T07:38:19.447Z,57.40
2018-08-06T07:40:47.963Z,56.30
2018-08-06T07:43:16.556Z,55.70
2018-08-06T07:45:45.005Z,55.60
2018-08-06T07:48:13.515Z,56.00
2018-08-06T07:50:42.048Z,55.70
2018-08-06T07:53:10.552Z,55.20
2018-08-06T07:55:39.055Z,55.20
2018-08-06T07:58:07.566Z,55.30
2018-08-06T08:00:36.065Z,54.90
2018-08-06T08:03:04.594Z,54.70
2018-08-06T08:05:33.095Z,53.70
2018-08-06T08:08:01.903Z,52.80
2018-08-06T08:12:58.584Z,52.60
2018-08-06T08:15:27.406Z,52.10
2018-08-06T08:17:57.803Z,52.00
2018-08-06T08:20:26.776Z,51.50
2018-08-06T08:22:55.301Z,51.10
2018-08-06T08:25:24.246Z,50.60
2018-08-06T08:27:52.745Z,50.20
2018-08-06T08:30:21.612Z,49.40
2018-08-06T08:35:18.348Z,49.50
2018-08-06T08:37:46.855Z,49.50
2018-08-06T08:40:17.775Z,49.20
2018-08-06T08:42:46.294Z,49.70
2018-08-06T08:45:16.935Z,49.30
2018-08-06T08:47:46.391Z,49.60
2018-08-06T08:52:44.141Z,48.50
2018-08-06T08:55:14.301Z,49.00
2018-08-06T09:00:19.291Z,49.80
2018-08-06T09:02:48.955Z,50.10
2018-08-06T09:07:47.049Z,49.10
2018-08-06T09:10:16.501Z,49.50
2018-08-06T09:12:45.528Z,49.90
2018-08-06T09:15:20.753Z,49.80
2018-08-06T09:17:49.361Z,49.70
2018-08-06T09:22:46.643Z,50.10
2018-08-06T09:25:15.730Z,50.70
2018-08-06T09:27:45.470Z,50.70
2018-08-06T09:30:18.355Z,51.40
2018-08-06T09:32:48.051Z,51.60
2018-08-06T09:35:17.539Z,52.10
2018-08-06T09:37:46.083Z,52.00
2018-08-06T09:40:16.057Z,52.20
2018-08-06T09:42:45.433Z,52.70
2018-08-06T09:47:44.647Z,53.20
2018-08-06T09:52:43.222Z,53.20
2018-08-06T09:55:14.707Z,53.80
2018-08-06T09:57:43.826Z,54.00
2018-08-06T10:00:23.492Z,53.80
2018-08-06T10:02:52.735Z,54.00
2018-08-06T10:07:50.499Z,54.60
2018-08-06T10:10:19.033Z,54.60
2018-08-06T10:12:47.812Z,54.90
2018-08-06T10:15:16.778Z,55.00
2018-08-06T10:20:18.140Z,55.20
2018-08-06T10:22:46.664Z,55.30
2018-08-06T10:25:16.104Z,55.30
2018-08-06T10:27:45.727Z,55.40
2018-08-06T10:30:23.069Z,55.60
2018-08-06T10:32:51.530Z,55.80
2018-08-06T10:35:20.716Z,55.60
2018-08-06T10:37:49.247Z,55.70
2018-08-06T10:40:19.307Z,56.00
2018-08-06T10:42:47.831Z,55.80
2018-08-06T10:45:18.507Z,56.30
2018-08-06T10:47:47.511Z,56.60
2018-08-06T10:52:44.204Z,56.30
2018-08-06T10:55:13.250Z,56.60
2018-08-06T10:57:43.147Z,56.30
2018-08-06T11:00:15.102Z,56.50
2018-08-06T11:02:43.919Z,56.30
2018-08-06T11:05:13.707Z,56.40
2018-08-06T11:07:42.253Z,56.80
2018-08-06T11:10:19.022Z,56.80
2018-08-06T11:12:47.538Z,56.80
2018-08-06T11:15:22.403Z,57.20
2018-08-06T11:17:50.961Z,56.90
2018-08-06T11:20:20.746Z,57.50
2018-08-06T11:22:49.214Z,57.70
2018-08-06T11:25:19.602Z,57.20
2018-08-06T11:30:18.751Z,57.30
2018-08-06T11:32:48.133Z,57.30
2018-08-06T11:35:17.359Z,57.00
2018-08-06T11:37:45.900Z,57.10
2018-08-06T11:40:15.766Z,56.90
2018-08-06T11:42:44.999Z,57.00
2018-08-06T11:47:44.058Z,57.10
2018-08-06T11:50:12.903Z,57.00
2018-08-06T11:52:41.586Z,57.00
2018-08-06T11:57:39.586Z,57.20
2018-08-06T12:00:13.436Z,58.50
2018-08-06T12:02:41.960Z,58.00
2018-08-06T12:05:10.480Z,57.40
2018-08-06T12:07:39.539Z,57.30
2018-08-06T12:12:38.403Z,57.50
2018-08-06T12:15:08.245Z,57.70
2018-08-06T12:17:37.073Z,58.10
2018-08-06T12:20:09.631Z,57.90
2018-08-06T12:22:38.715Z,57.60
2018-08-06T12:27:36.402Z,57.80
2018-08-06T12:30:07.531Z,57.70
2018-08-06T12:32:36.044Z,57.60
2018-08-06T12:35:05.393Z,57.60
2018-08-06T12:37:34.221Z,57.70
2018-08-06T12:40:03.076Z,57.70
2018-08-06T12:42:31.600Z,57.60
2018-08-06T12:45:00.127Z,57.60
2018-08-06T12:47:28.636Z,57.50
2018-08-06T12:49:57.158Z,57.30
2018-08-06T12:52:25.668Z,57.40
2018-08-06T12:54:54.698Z,57.20
2018-08-06T12:57:23.427Z,57.50
2018-08-06T12:59:51.944Z,57.50
2018-08-06T13:02:20.488Z,57.50
2018-08-06T13:04:48.983Z,57.50
2018-08-06T13:07:17.483Z,57.50
2018-08-06T13:09:46.000Z,57.30
2018-08-06T13:12:14.540Z,57.20
2018-08-06T13:14:43.267Z,57.30
2018-08-06T13:17:11.768Z,57.30
2018-08-06T13:19:40.274Z,57.30
2018-08-06T13:22:08.791Z,57.40
2018-08-06T13:24:37.387Z,57.20
2018-08-06T13:29:34.130Z,57.30
2018-08-06T13:32:02.631Z,57.10
2018-08-06T13:34:31.147Z,57.10
2018-08-06T13:36:59.722Z,57.00
2018-08-06T13:39:28.193Z,57.30
2018-08-06T13:41:56.709Z,57.60
2018-08-06T13:44:25.275Z,57.60
2018-08-06T13:46:53.816Z,57.50
2018-08-06T13:49:22.264Z,57.50
2018-08-06T13:51:50.807Z,57.70
2018-08-06T13:54:19.323Z,57.90
2018-08-06T13:56:47.819Z,58.60
2018-08-06T13:59:16.407Z,58.20
2018-08-06T14:01:44.843Z,58.20
2018-08-06T14:04:13.327Z,58.30
2018-08-06T14:06:41.832Z,58.30
2018-08-06T14:09:11.886Z,58.90
2018-08-06T14:14:09.260Z,58.40
2018-08-06T14:19:06.955Z,58.90
2018-08-06T14:21:35.928Z,58.30
2018-08-06T14:24:04.808Z,58.00
2018-08-06T14:26:33.647Z,57.90
2018-08-06T14:29:02.323Z,57.50
2018-08-06T14:31:31.181Z,57.70
2018-08-06T14:33:59.674Z,57.80
2018-08-06T14:36:28.183Z,57.60
2018-08-06T14:38:56.684Z,57.60
2018-08-06T14:41:25.192Z,57.60
2018-08-06T14:43:53.683Z,57.00
2018-08-06T14:46:22.176Z,57.20
2018-08-06T14:48:50.677Z,57.40
2018-08-06T14:51:19.195Z,57.60
2018-08-06T14:53:47.703Z,56.70
2018-08-06T14:56:16.238Z,56.90
2018-08-06T14:58:44.751Z,56.10
2018-08-06T15:01:13.259Z,56.70
2018-08-06T15:03:41.772Z,57.00
2018-08-06T15:06:10.260Z,57.20
2018-08-06T15:08:38.764Z,57.30
2018-08-06T15:11:07.549Z,57.40
2018-08-06T15:13:36.060Z,57.60
2018-08-06T15:16:04.555Z,57.60
2018-08-06T15:18:33.059Z,57.80
2018-08-06T15:21:01.564Z,57.80
2018-08-06T15:23:30.069Z,57.80
2018-08-06T15:25:58.580Z,57.90
2018-08-06T15:28:27.096Z,58.00
2018-08-06T15:30:55.611Z,58.00
2018-08-06T15:33:24.119Z,58.00
2018-08-06T15:35:52.639Z,58.10
2018-08-06T15:38:21.146Z,58.30
2018-08-06T15:40:49.667Z,58.30
2018-08-06T15:43:18.187Z,58.40
2018-08-06T15:45:46.692Z,58.60
2018-08-06T15:48:15.224Z,58.90
2018-08-06T15:50:43.734Z,58.80
2018-08-06T15:53:12.281Z,58.80
2018-08-06T15:55:40.761Z,58.90
2018-08-06T15:58:09.273Z,58.90
2018-08-06T16:00:37.772Z,58.90
2018-08-06T16:03:06.281Z,59.00
2018-08-06T16:05:34.791Z,58.90
2018-08-06T16:08:03.307Z,59.40
2018-08-06T16:10:31.806Z,59.70
2018-08-06T16:13:00.323Z,59.70
2018-08-06T16:15:28.848Z,60.00
2018-08-06T16:17:57.410Z,60.10
2018-08-06T16:20:25.934Z,60.20
2018-08-06T16:22:54.448Z,60.30
2018-08-06T16:25:22.955Z,60.50
2018-08-06T16:27:51.471Z,60.60
2018-08-06T16:30:22.107Z,60.60
2018-08-06T16:32:50.912Z,60.80
2018-08-06T16:35:21.180Z,60.90
2018-08-06T16:37:51.091Z,60.90
2018-08-06T16:40:19.908Z,61.00
2018-08-06T16:42:49.257Z,61.00
2018-08-06T16:45:17.915Z,61.30
2018-08-06T16:47:46.603Z,61.50
2018-08-06T16:50:16.380Z,61.40
2018-08-06T16:52:45.553Z,61.50
2018-08-06T16:55:14.419Z,61.50
2018-08-06T17:00:15.887Z,61.70
2018-08-06T17:02:44.964Z,61.60
2018-08-06T17:05:14.354Z,61.70
2018-08-06T17:07:44.308Z,61.90
2018-08-06T17:10:15.663Z,62.00
2018-08-06T17:12:45.535Z,62.50
2018-08-06T17:15:15.727Z,62.90
2018-08-06T17:17:44.876Z,62.50
2018-08-06T17:20:16.507Z,62.60
2018-08-06T17:22:46.554Z,62.40
2018-08-06T17:25:15.476Z,62.80
2018-08-06T17:27:44.223Z,62.50
2018-08-06T17:32:41.645Z,63.00
2018-08-06T17:35:13.201Z,63.30
2018-08-06T17:37:41.734Z,63.60
2018-08-06T17:42:40.669Z,63.20
2018-08-06T17:45:12.451Z,63.20
2018-08-06T17:47:40.950Z,63.30
2018-08-06T17:50:11.724Z,63.50
2018-08-06T17:52:40.195Z,63.40
2018-08-06T17:55:08.744Z,63.30
2018-08-06T17:57:38.175Z,63.40
2018-08-06T18:00:08.025Z,63.40
2018-08-06T18:02:36.897Z,64.10
2018-08-06T18:05:06.247Z,63.60
2018-08-06T18:07:34.752Z,63.70
2018-08-06T18:10:03.287Z,63.70
2018-08-06T18:12:31.788Z,63.70
2018-08-06T18:15:00.308Z,63.60
2018-08-06T18:19:57.001Z,63.90
2018-08-06T18:22:25.520Z,64.10
2018-08-06T18:24:54.018Z,64.00
2018-08-06T18:27:23.104Z,64.00
2018-08-06T18:29:51.615Z,64.40
2018-08-06T18:32:20.128Z,64.80
2018-08-06T18:34:48.652Z,64.20
2018-08-06T18:37:17.148Z,64.10
2018-08-06T18:39:45.663Z,64.20
2018-08-06T18:42:14.184Z,64.30
2018-08-06T18:44:42.696Z,64.20
2018-08-06T18:47:11.211Z,64.20
2018-08-06T18:49:39.727Z,64.20
2018-08-06T18:52:08.333Z,64.30
2018-08-06T18:54:36.800Z,64.40
2018-08-06T18:57:05.319Z,64.20
2018-08-06T18:59:33.851Z,64.40
2018-08-06T19:02:02.368Z,64.50
2018-08-06T19:04:30.875Z,64.40
2018-08-06T19:06:59.367Z,64.40
2018-08-06T19:09:27.887Z,64.30
2018-08-06T19:12:00.595Z,64.40
2018-08-06T19:14:29.127Z,64.40
2018-08-06T19:16:57.644Z,64.80
2018-08-06T19:19:27.674Z,64.80
2018-08-06T19:21:57.545Z,64.60
2018-08-06T19:24:31.299Z,64.50
2018-08-06T19:26:59.872Z,64.80
2018-08-06T19:29:28.378Z,65.00
2018-08-06T19:31:56.900Z,64.90
2018-08-06T19:34:25.406Z,65.00
2018-08-06T19:36:59.280Z,65.00
2018-08-06T19:39:27.794Z,65.00
2018-08-06T19:41:56.295Z,65.20
2018-08-06T19:44:25.002Z,65.30
2018-08-06T19:46:53.520Z,65.40
2018-08-06T19:49:27.267Z,65.50
2018-08-06T19:51:55.771Z,65.60
2018-08-06T19:54:24.285Z,65.70
2018-08-06T19:56:52.811Z,65.70
2018-08-06T19:59:21.333Z,65.60
2018-08-06T20:01:49.841Z,65.60
2018-08-06T20:04:18.351Z,65.60
2018-08-06T20:06:46.859Z,65.70
2018-08-06T20:09:15.411Z,65.70
2018-08-06T20:11:43.920Z,65.90
2018-08-06T20:14:12.421Z,65.70
2018-08-06T20:16:40.927Z,65.50
2018-08-06T20:19:10.105Z,65.60
2018-08-06T20:21:38.615Z,65.70
2018-08-06T20:26:35.882Z,65.80
2018-08-06T20:29:04.476Z,65.70
2018-08-06T20:31:32.978Z,65.70
2018-08-06T20:34:01.492Z,65.70
2018-08-06T20:36:30.024Z,65.70
2018-08-06T20:38:58.536Z,65.70
2018-08-06T20:41:27.032Z,65.80
2018-08-06T20:43:55.543Z,65.60
2018-08-06T20:46:24.047Z,65.70
2018-08-06T20:48:52.563Z,65.90
2018-08-06T20:51:21.359Z,65.80
2018-08-06T20:53:49.882Z,65.80
2018-08-06T20:56:18.399Z,65.90
2018-08-06T20:58:46.898Z,66.00
2018-08-06T21:01:15.419Z,66.10
2018-08-06T21:03:43.919Z,66.10
2018-08-06T21:06:12.442Z,66.10
2018-08-06T21:08:40.943Z,66.20
2018-08-06T21:11:09.463Z,66.10
2018-08-06T21:13:37.966Z,66.30
2018-08-06T21:16:06.479Z,66.20
2018-08-06T21:18:35.044Z,66.10
2018-08-06T21:21:03.585Z,66.00
2018-08-06T21:23:32.109Z,65.80
2018-08-06T21:26:00.616Z,65.70
2018-08-06T21:28:29.127Z,65.80
2018-08-06T21:33:25.943Z,65.90
2018-08-06T21:35:54.455Z,65.90
2018-08-06T21:38:22.963Z,66.00
2018-08-06T21:40:51.471Z,65.90
2018-08-06T21:43:19.991Z,66.00
2018-08-06T21:45:48.581Z,66.00
2018-08-06T21:48:17.035Z,66.00
2018-08-06T21:50:45.575Z,66.00
2018-08-06T21:53:14.094Z,65.90
2018-08-06T21:55:42.595Z,65.60
2018-08-06T21:58:11.119Z,65.80
2018-08-06T22:00:41.155Z,65.70
2018-08-06T22:03:16.203Z,65.80
2018-08-06T22:05:45.479Z,65.80
2018-08-06T22:08:14.251Z,65.70
2018-08-06T22:13:11.815Z,65.80
2018-08-06T22:15:40.615Z,65.90
2018-08-06T22:18:10.539Z,65.90
2018-08-06T22:20:39.063Z,66.00
2018-08-06T22:23:08.207Z,65.70
2018-08-06T22:28:05.880Z,65.80
2018-08-06T22:33:02.572Z,66.10
2018-08-06T22:35:31.093Z,66.20
2018-08-06T22:37:59.627Z,66.10
2018-08-06T22:40:28.160Z,66.10
2018-08-06T22:42:56.667Z,66.10
2018-08-06T22:45:25.194Z,66.20
2018-08-06T22:47:53.694Z,66.30
2018-08-06T22:50:22.204Z,66.30
2018-08-06T22:52:50.721Z,66.20
2018-08-06T22:55:19.212Z,66.30
2018-08-06T22:57:47.715Z,66.30
2018-08-06T23:00:17.301Z,66.20
2018-08-06T23:02:46.251Z,66.20
2018-08-06T23:05:16.211Z,66.30
2018-08-06T23:07:45.056Z,66.20
2018-08-06T23:10:15.088Z,66.40
2018-08-06T23:12:43.687Z,66.20
2018-08-06T23:15:13.944Z,66.30
2018-08-06T23:17:43.041Z,66.60
2018-08-06T23:20:11.507Z,66.60
2018-08-06T23:22:40.350Z,66.60
2018-08-06T23:25:09.039Z,66.70
2018-08-06T23:27:38.646Z,66.60
2018-08-06T23:30:10.842Z,66.40
2018-08-06T23:32:39.847Z,66.70
2018-08-06T23:35:09.922Z,66.60
2018-08-06T23:37:39.047Z,66.40
2018-08-06T23:40:08.514Z,66.50
2018-08-06T23:45:07.303Z,66.60
2018-08-06T23:47:36.699Z,66.50
2018-08-06T23:50:06.704Z,67.10
2018-08-06T23:52:35.208Z,66.60
2018-08-06T23:55:03.715Z,66.70
2018-08-06T23:57:32.219Z,66.70
